Henderson, Nevada Weather observations

Data are for observation ending at time listed.
 Day   Time    Ave.   Ave.  Ave.  Vector   Max.   Stn.    Total    Solar   Ave.  
  of    of     Air    Rel.  Wind   Wind    Wind   Baro.  Precip.   Rad.    Soil  
Year   Day     Temp.  Hum.  Speed  Dir.    Gust   Pres.                    Temp. 
2015   (PST)    F      %     mph   deg.    mph     mb.     in.     W/m2     F   
------------------------------------------------------------------------------
  87   13:30   89.7    10    4.5   315      8.4   938.4    0.00     906    97.1
  87   13:40   90.2    10    3.5   327      8.4   938.3    0.00     889    97.0
  87   13:50   90.4    10    4.3   324      8.4   938.0    0.00     866    97.0
  87   14:00   90.6    10    4.0     0      9.1   937.9    0.00     846    96.8
  87   14:10   91.3    10    2.7    29      7.7   937.8    0.00     819    96.8
  87   14:20   91.3    10    2.1    83      4.6   937.7    0.00     793    96.9
  87   14:30   90.9    10    2.7   104      6.5   937.6    0.00     766    97.0
  87   14:40   91.4     9    4.1   272      8.8   937.5    0.00     734    96.9
  87   14:50   91.6    10    3.2    10      8.6   937.4    0.00     701    96.8
  87   15:00   90.9    10    2.9   308      8.0   937.3    0.00     669    96.5
  87   15:10   90.9    10    3.2   288      9.2   937.3    0.00     635    96.1
  87   15:20   91.7     8    4.4   298     11.2   937.2    0.00     602    96.1
  87   15:30   91.8     8    4.1   331      9.3   937.0    0.00     566    95.9
  87   15:40   91.6     8    3.1   273     11.2   937.0    0.00     528    95.7
  87   15:50   90.9     8    5.5   296     13.5   936.9    0.00     491    95.5
  87   16:00   90.3     8    5.2   300     10.0   936.9    0.00     454    94.8
  87   16:10   90.3     8    5.1   287     11.5   937.0    0.00     413    94.2
  87   16:20   90.5     8    5.6   274     13.0   937.0    0.00     372    93.8
  87   16:30   90.1     8    4.8   277      9.9   937.0    0.00     333    93.4
  87   16:40   89.4     8    6.6   282     11.2   937.0    0.00     293    92.9
  87   16:50   89.2     8    4.6   272      8.5   937.0    0.00     254    92.2
  87   17:00   88.8     8    6.9   274     11.7   937.0    0.00     213    91.6
  87   17:10   88.6     7    6.6   270     11.7   937.1    0.00     175    90.7
  87   17:20   88.6     7    3.8   264      7.0   937.0    0.00     139    89.9
  87   17:30   88.6     7    1.5   266      5.3   937.0    0.00      82    88.7
  87   17:40   87.2     7    2.3   265      6.1   937.0    0.00      22    86.8
  87   17:50   85.9     7    2.3   254      7.3   937.1    0.00      17    84.8
  87   18:00   85.3     7    1.4   239      5.0   937.1    0.00       7    83.1
  87   18:10   84.5     7    3.1   260     10.2   937.1    0.00       6    81.6
  87   18:20   84.1     7    1.7   236      6.9   937.2    0.00       0    80.5
  87   18:30   83.4     7    2.3   248      5.5   937.3    0.00       0    79.3
  87   18:40   83.1     8    1.7   233      4.9   937.4    0.00       0    78.5
  87   18:50   82.0     8    1.5   194      4.9   937.5    0.00       0    77.6
  87   19:00   80.6     9    1.2   152      5.1   937.6    0.00       0    76.5
  87   19:10   80.2     9    1.9   161      4.7   937.7    0.00       0    75.5
  87   19:20   80.2     9    1.5   150      5.5   937.8    0.00       0    74.8
  87   19:30   79.8     9    1.6   131      3.2   937.9    0.00       0    74.3
  87   19:40   79.4    10    1.9   119      3.7   938.0    0.00       0    73.9
  87   19:50   78.8    10    2.1   134      4.1   938.1    0.00       0    73.6
  87   20:00   79.7    10    2.9   121      7.2   938.1    0.00       0    73.4
  87   20:10   80.1    10    2.8   120      5.8   938.1    0.00       0    73.8
  87   20:20   79.3    10    2.3   124      3.9   938.2    0.00       0    73.7
  87   20:30   78.5    11    2.4   126      4.8   938.2    0.00       0    73.4
  87   20:40   78.0    11    2.3   120      4.4   938.3    0.00       0    73.1
  87   20:50   78.2    11    2.5   152      5.0   938.3    0.00       0    72.8
  87   21:00   78.1    12    1.6   192      3.9   938.4    0.00       0    72.3
  87   21:10   77.2    12    2.1   191      4.2   938.5    0.00       0    71.7
  87   21:20   77.3    12    2.4   187      7.2   938.5    0.00       0    71.2
  87   21:30   76.4    12    2.8   201      5.4   938.5    0.00       0    70.7
  87   21:40   76.2    12    3.3   212      5.1   938.6    0.00       0    70.5
  87   21:50   76.1    12    3.0   214      5.8   938.6    0.00       0    70.2
  87   22:00   75.8    12    3.1   215      5.3   938.6    0.00       0    70.0
  87   22:10   75.9    12    3.3   211      5.0   938.7    0.00       0    69.9
  87   22:20   75.8    12    2.9   214      4.6   938.7    0.00       0    69.7
  87   22:30   76.0    11    3.3   213      5.5   938.6    0.00       0    69.6
  87   22:40   75.8    11    2.9   183      7.1   938.7    0.00       0    69.6
  87   22:50   75.7    11    4.2   188      7.7   938.7    0.00       0    69.6
  87   23:00   75.1    11    3.4   184      8.7   938.7    0.00       0    69.5
  87   23:10   76.0    10    3.0   173      8.0   938.8    0.00       0    69.5
  87   23:20   75.4    11    1.4   191      5.5   938.8    0.00       0    69.4
  87   23:30   73.3    12    0.6   127      2.7   938.9    0.00       0    68.6
  87   23:40   71.4    12    1.0   268      2.6   939.0    0.00       0    67.4
  87   23:50   71.6    12    1.4   114      3.0   939.0    0.00       0    66.4
  88    0:00   70.1    14    1.7   223      3.5   939.0    0.00       0    65.8
  88    0:10   68.1    16    1.7   214      2.9   939.0    0.00       0    64.8
  88    0:20   67.1    17    1.7   180      3.7   939.1    0.00       0    63.7
  88    0:30   68.8    14    1.2   142      3.1   938.9    0.00       0    63.0
  88    0:40   69.9    13    2.0   159      8.5   938.9    0.00       0    62.8
  88    0:50   71.3    12    3.3   178      7.8   938.8    0.00       0    63.5
  88    1:00   70.7    12    2.2   166      5.6   938.8    0.00       0    64.0
  88    1:10   69.4    13    1.8   178      4.2   938.8    0.00       0    63.8
  88    1:20   68.0    14    2.3   270      4.9   938.9    0.00       0    63.1
  88    1:30   67.9    14    2.1   265      3.7   938.8    0.00       0    62.7
  88    1:40   67.1    14    2.1   246      4.4   938.7    0.00       0    62.3
  88    1:50   65.8    16    1.2   224      2.9   938.8    0.00       0    61.6
  88    2:00   64.1    18    0.9   225      2.0   938.6    0.00       0    60.8
  88    2:10   63.9    18    0.5   126      2.0   938.7    0.00       0    59.9
  88    2:20   63.8    18    1.4   168      3.2   938.7    0.00       0    59.1
  88    2:30   63.8    18    1.1   183      2.4   938.8    0.00       0    58.6
  88    2:40   64.1    17    1.7   172      4.4   938.8    0.00       0    58.2
  88    2:50   65.4    16    4.0   192      6.3   938.8    0.00       0    58.2
  88    3:00   66.0    15    3.3   196      6.7   938.8    0.00       0    58.9
  88    3:10   65.0    17    2.7   212      4.1   938.8    0.00       0    59.1
  88    3:20   64.1    18    2.3   213      3.5   938.8    0.00       0    58.9
  88    3:30   63.4    18    2.6   205      4.7   938.8    0.00       0    58.4
  88    3:40   62.5    18    1.7   252      2.9   938.9    0.00       0    58.0
  88    3:50   61.8    20    0.5   332      2.6   939.2    0.00       0    57.6
  88    4:00   61.3    21    0.5   352      2.3   939.3    0.00       0    57.1
  88    4:10   60.9    22    0.9    19      2.5   939.4    0.00       0    56.3
  88    4:20   60.8    22    0.9   121      2.0   939.5    0.00       0    55.9
  88    4:30   60.5    22    1.6   147      3.4   939.5    0.00       0    55.4
  88    4:40   61.1    21    1.4   148      3.0   939.6    0.00       0    55.3
  88    4:50   61.3    21    1.6   166      3.8   939.8    0.00       0    55.5
  88    5:00   60.4    22    1.6   194      3.9   940.0    0.00       0    55.2
  88    5:10   59.8    22    1.4   169      2.8   940.1    0.00       0    54.8
  88    5:20   61.4    20    1.4   153      2.6   940.2    0.00       0    54.8
  88    5:30   62.1    19    1.3   149      3.7   940.4    0.00       3    54.9
  88    5:40   61.4    21    1.2   188      2.5   940.5    0.00       7    54.9
  88    5:50   59.7    23    0.4   273      1.4   940.6    0.00      15    54.6
  88    6:00   58.4    25    0.4   208      2.5   940.6    0.00      22    54.2
  88    6:10   58.9    26    0.5   106      2.0   940.8    0.00      31    54.0
  88    6:20   60.0    23    0.8   118      2.0   941.0    0.00      54    54.0
  88    6:30   63.1    20    0.9   131      2.6   941.1    0.00     134    54.8
  88    6:40   64.1    20    0.6   269      3.0   941.2    0.00     199    55.7
  88    6:50   65.8    22    0.8   259      1.8   941.3    0.00     246    57.9
  88    7:00   70.1    17    0.3   302      1.8   941.4    0.00     283    62.2
  88    7:10   70.6    16    1.4   304      3.5   941.5    0.00     333    66.6
  88    7:20   70.2    18    2.1   286      3.9   941.5    0.00     370    70.2
  88    7:30   70.8    17    1.8   300      3.6   941.6    0.00     396    73.0
  88    7:40   71.8    16    1.8   315      4.2   941.7    0.00     441    75.2
  88    7:50   72.7    15    2.1   323      4.1   941.8    0.00     474    77.4
  88    8:00   73.6    15    2.1   322      4.2   941.9    0.00     520    79.3
  88    8:10   73.9    14    2.1   323      4.2   941.9    0.00     556    81.0
  88    8:20   74.4    14    1.7   301      3.7   942.0    0.00     556    82.3
  88    8:30   75.2    14    1.4   312      4.1   942.1    0.00     631    83.5
  88    8:40   76.0    14    1.9   345      4.5   942.2    0.00     668    84.9
  88    8:50   76.8    13    1.8   329      4.5   942.2    0.00     682    86.1
  88    9:00   76.9    13    2.8   314      5.9   942.2    0.00     732    87.0
  88    9:10   77.2    13    2.8   304      7.1   942.3    0.00     790    87.7
  88    9:20   77.7    13    2.6   320      6.9   942.3    0.00     716    87.9
  88    9:30   78.3    12    2.1   320      6.0   942.3    0.00     681    87.9
  88    9:40   79.0    12    2.3    29      4.7   942.2    0.00     757    88.2
  88    9:50   79.8    12    1.7    22      3.7   942.2    0.00     834    88.9
  88   10:00   81.5    12    1.9   342      6.8   942.1    0.00     887    90.5
  88   10:10   81.1    12    2.2   336      5.0   942.1    0.00     930    91.5
  88   10:20   81.2    12    2.6   320      5.8   942.1    0.00     931    92.2
  88   10:30   81.8    12    2.6   335      6.1   942.0    0.00     932    92.6
  88   10:40   82.6    11    2.3   333      7.3   942.0    0.00     979    93.3
  88   10:50   84.2    11    1.7    45      5.0   941.9    0.00     978    94.2
  88   11:00   83.0    11    3.2   324      8.1   941.7    0.00     923    94.3
  88   11:10   82.2    12    3.2   292      6.6   941.6    0.00     990    94.0
  88   11:20   82.4    12    3.0   286      6.4   941.5    0.00     941    94.0
  88   11:30   82.8    12    3.0   300      6.0   941.4    0.00     895    93.8
  88   11:40   82.5    11    3.0   297      5.3   941.2    0.00    1015    93.4
  88   11:50   82.6    11    2.8   280      6.4   941.0    0.00     927    93.4
  88   12:00   83.2    11    2.9   285      6.9   940.9    0.00     993    93.5
  88   12:10   84.2    11    1.5   261      3.8   940.8    0.00     973    94.0
  88   12:20   85.8    10    1.8   235      4.9   940.6    0.00     982    94.7
  88   12:30   85.9    10    2.4   350      7.3   940.5    0.00    1022    95.2
  88   12:40   86.6    10    2.7    76      8.3   940.3    0.00     978    95.3
  88   12:50   86.6    10    2.4    67      5.7   940.1    0.00     931    95.1
  88   13:00   85.8    10    3.4    97      9.6   939.9    0.00     951    94.9
  88   13:10   86.8    10    1.6   314      3.7   939.7    0.00     951    94.9
  88   13:20   86.6    10    3.0    75      6.9   939.7    0.00     953    95.4

Return to Henderson, Nevada graphs page.


Western Regional Climate Center,wrcc@dri.edu